createdAt,value
2023-05-13T00:01:27.754Z,14.19
2023-05-13T00:03:55.936Z,13.79
2023-05-13T00:06:24.690Z,13.95
2023-05-13T00:08:54.296Z,13.93
2023-05-13T00:11:24.548Z,13.90
2023-05-13T00:13:53.298Z,13.91
2023-05-13T00:16:24.206Z,13.59
2023-05-13T00:18:52.764Z,13.56
2023-05-13T00:21:21.305Z,13.59
2023-05-13T00:23:49.529Z,13.53
2023-05-13T00:26:18.892Z,13.52
2023-05-13T00:28:49.757Z,13.53
2023-05-13T00:31:19.806Z,13.55
2023-05-13T00:33:51.817Z,13.64
2023-05-13T00:36:19.914Z,13.73
2023-05-13T00:38:47.844Z,13.72
2023-05-13T00:41:16.384Z,13.70
2023-05-13T00:43:46.357Z,13.69
2023-05-13T00:46:15.950Z,13.99
2023-05-13T00:48:44.783Z,14.11
2023-05-13T00:51:13.046Z,14.08
2023-05-13T00:53:43.760Z,14.01
2023-05-13T00:56:12.133Z,13.90
2023-05-13T00:58:39.995Z,13.91
2023-05-13T01:01:19.288Z,13.97
2023-05-13T01:03:54.688Z,13.99
2023-05-13T01:06:29.001Z,14.03
2023-05-13T01:09:04.142Z,13.89
2023-05-13T01:11:38.658Z,14.12
2023-05-13T01:14:12.490Z,14.15
2023-05-13T01:16:47.936Z,14.18
2023-05-13T01:19:32.792Z,14.18
2023-05-13T01:22:03.412Z,13.96
2023-05-13T01:24:31.666Z,14.11
2023-05-13T01:27:00.263Z,14.06
2023-05-13T01:29:29.055Z,14.14
2023-05-13T01:31:58.261Z,14.12
2023-05-13T01:34:27.550Z,14.10
2023-05-13T01:36:56.746Z,14.15
2023-05-13T01:39:26.853Z,14.04
2023-05-13T01:41:55.058Z,14.00
2023-05-13T01:44:24.153Z,14.14
2023-05-13T01:46:53.693Z,14.08
2023-05-13T01:49:22.246Z,14.12
2023-05-13T01:51:50.737Z,14.03
2023-05-13T01:54:23.291Z,13.96
2023-05-13T01:56:53.373Z,14.08
2023-05-13T01:59:21.795Z,14.03
2023-05-13T02:01:50.429Z,13.94
2023-05-13T02:04:19.178Z,14.02
2023-05-13T02:06:47.699Z,14.06
2023-05-13T02:09:16.338Z,13.93
2023-05-13T02:11:44.370Z,13.94
2023-05-13T02:14:17.182Z,13.79
2023-05-13T02:16:45.461Z,13.70
2023-05-13T02:19:13.630Z,13.84
2023-05-13T02:21:43.581Z,13.66
2023-05-13T02:24:11.694Z,13.60
2023-05-13T02:26:41.631Z,13.49
2023-05-13T02:29:10.295Z,13.41
2023-05-13T02:31:41.311Z,13.57
2023-05-13T02:34:09.626Z,13.43
2023-05-13T02:36:38.236Z,13.61
2023-05-13T02:39:06.373Z,13.62
2023-05-13T02:41:34.632Z,13.65
2023-05-13T02:44:03.349Z,13.45
2023-05-13T02:46:31.517Z,13.39
2023-05-13T02:49:00.938Z,13.37
2023-05-13T02:51:29.309Z,13.24
2023-05-13T02:53:57.216Z,13.34
2023-05-13T02:56:25.150Z,13.37
2023-05-13T02:58:53.584Z,13.55
2023-05-13T03:01:21.735Z,13.69
2023-05-13T03:03:49.881Z,13.71
2023-05-13T03:06:19.722Z,13.46
2023-05-13T03:08:47.790Z,13.56
2023-05-13T03:11:15.944Z,13.36
2023-05-13T03:13:44.403Z,13.50
2023-05-13T03:16:12.402Z,13.04
2023-05-13T03:18:40.445Z,12.57
2023-05-13T03:21:09.090Z,13.23
2023-05-13T03:23:38.773Z,13.24
2023-05-13T03:26:06.797Z,13.28
2023-05-13T03:28:35.499Z,13.18
2023-05-13T03:31:03.916Z,12.93
2023-05-13T03:33:32.143Z,12.60
2023-05-13T03:36:01.401Z,12.33
2023-05-13T03:38:29.399Z,12.80
2023-05-13T03:40:58.779Z,12.75
2023-05-13T03:43:27.228Z,12.79
2023-05-13T03:45:55.283Z,12.84
2023-05-13T03:48:23.841Z,12.77
2023-05-13T03:50:53.089Z,12.60
2023-05-13T03:53:21.156Z,12.66
2023-05-13T03:55:49.729Z,12.90
2023-05-13T03:58:19.304Z,12.93
2023-05-13T04:00:47.792Z,12.98
2023-05-13T04:03:17.773Z,13.32
2023-05-13T04:05:47.777Z,13.24
2023-05-13T04:08:16.543Z,13.39
2023-05-13T04:10:44.890Z,13.31
2023-05-13T04:13:13.101Z,13.61
2023-05-13T04:15:42.962Z,13.34
2023-05-13T04:18:10.941Z,13.61
2023-05-13T04:20:39.666Z,13.68
2023-05-13T04:23:08.624Z,13.80
2023-05-13T04:25:39.491Z,14.60
2023-05-13T04:28:07.451Z,14.23
2023-05-13T04:30:36.358Z,15.17
2023-05-13T04:33:06.842Z,15.01
2023-05-13T04:35:34.953Z,15.68
2023-05-13T04:38:04.233Z,16.08
2023-05-13T04:40:32.340Z,16.36
2023-05-13T04:43:00.450Z,16.58
2023-05-13T04:45:28.883Z,16.10
2023-05-13T04:47:58.433Z,16.47
2023-05-13T04:50:28.327Z,17.12
2023-05-13T04:52:57.286Z,16.85
2023-05-13T04:55:27.591Z,17.92
2023-05-13T04:57:55.827Z,18.06
2023-05-13T05:00:24.342Z,18.95
2023-05-13T05:02:52.437Z,19.50
2023-05-13T05:05:20.865Z,20.01
2023-05-13T05:07:51.016Z,19.78
2023-05-13T05:10:19.408Z,18.82
2023-05-13T05:12:47.703Z,18.44
2023-05-13T05:15:17.477Z,18.77
2023-05-13T05:17:46.192Z,19.14
2023-05-13T05:20:14.613Z,19.46
2023-05-13T05:22:43.437Z,19.40
2023-05-13T05:25:13.163Z,18.77
2023-05-13T05:27:41.213Z,19.42
2023-05-13T05:30:12.110Z,19.32
2023-05-13T05:32:40.276Z,19.56
2023-05-13T05:35:09.123Z,18.84
2023-05-13T05:37:37.538Z,19.34
2023-05-13T05:40:06.727Z,19.77
2023-05-13T05:42:36.703Z,20.21
2023-05-13T05:45:05.599Z,20.62
2023-05-13T05:47:34.293Z,20.42
2023-05-13T05:50:02.607Z,20.18
2023-05-13T05:52:30.637Z,19.04
2023-05-13T05:54:59.090Z,19.31
2023-05-13T05:57:27.166Z,19.30
2023-05-13T05:59:57.052Z,18.71
2023-05-13T06:02:25.205Z,19.26
2023-05-13T06:04:53.961Z,18.92
2023-05-13T06:07:21.971Z,18.16
2023-05-13T06:09:50.814Z,17.90
2023-05-13T06:12:19.493Z,17.90
2023-05-13T06:14:48.079Z,18.30
2023-05-13T06:17:17.696Z,18.04
2023-05-13T06:19:47.971Z,17.61
2023-05-13T06:22:16.539Z,18.18
2023-05-13T06:24:44.940Z,18.07
2023-05-13T06:27:13.495Z,19.13
2023-05-13T06:29:41.420Z,17.95
2023-05-13T06:32:09.969Z,18.36
2023-05-13T06:34:40.170Z,18.86
2023-05-13T06:37:08.584Z,19.06
2023-05-13T06:39:37.056Z,19.39
2023-05-13T06:42:05.708Z,18.87
2023-05-13T06:44:33.916Z,18.13
2023-05-13T06:47:03.258Z,17.94
2023-05-13T06:49:31.700Z,18.82
2023-05-13T06:52:01.132Z,18.60
2023-05-13T06:54:29.551Z,18.62
2023-05-13T06:56:57.588Z,18.39
2023-05-13T06:59:26.234Z,18.71
2023-05-13T07:01:54.242Z,18.50
2023-05-13T07:04:22.515Z,18.67
2023-05-13T07:06:52.136Z,18.67
2023-05-13T07:09:21.626Z,18.93
2023-05-13T07:11:49.856Z,17.80
2023-05-13T07:14:18.406Z,18.54
2023-05-13T07:16:46.716Z,19.18
2023-05-13T07:19:14.961Z,19.50
2023-05-13T07:21:43.450Z,19.83
2023-05-13T07:24:11.798Z,19.97
2023-05-13T07:26:41.441Z,20.11
2023-05-13T07:29:09.868Z,21.34
2023-05-13T07:31:38.266Z,20.95
2023-05-13T07:34:07.002Z,21.20
2023-05-13T07:36:35.569Z,21.48
2023-05-13T07:39:03.608Z,21.45
2023-05-13T07:41:31.510Z,22.54
2023-05-13T07:44:01.395Z,23.15
2023-05-13T07:46:29.604Z,23.83
2023-05-13T07:48:57.632Z,23.33
2023-05-13T07:51:26.149Z,23.80
2023-05-13T07:53:54.084Z,24.03
2023-05-13T07:56:22.355Z,23.43
2023-05-13T07:58:51.363Z,24.44
2023-05-13T08:01:20.968Z,24.57
2023-05-13T08:03:49.309Z,27.82
2023-05-13T08:06:17.627Z,29.15
2023-05-13T08:08:45.849Z,27.34
2023-05-13T08:11:15.790Z,29.89
2023-05-13T08:13:44.448Z,29.28
2023-05-13T08:16:13.395Z,29.32
2023-05-13T08:18:43.538Z,28.04
2023-05-13T08:21:12.394Z,27.05
2023-05-13T08:23:44.936Z,26.36
2023-05-13T08:26:15.075Z,25.38
2023-05-13T08:28:43.074Z,26.30
2023-05-13T08:31:12.707Z,23.30
2023-05-13T08:33:43.515Z,22.85
2023-05-13T08:36:11.906Z,22.66
2023-05-13T08:38:39.936Z,22.37
2023-05-13T08:41:08.962Z,24.03
2023-05-13T08:43:39.811Z,23.14
2023-05-13T08:46:12.555Z,22.58
2023-05-13T08:48:43.217Z,23.06
2023-05-13T08:51:12.251Z,21.82
2023-05-13T08:53:41.608Z,21.30
2023-05-13T08:56:10.808Z,22.14
2023-05-13T08:58:39.538Z,21.36
2023-05-13T09:01:08.622Z,22.41
2023-05-13T09:03:37.105Z,22.92
2023-05-13T09:06:07.278Z,21.27
2023-05-13T09:08:36.638Z,21.17
2023-05-13T09:11:05.587Z,22.63
2023-05-13T09:13:33.824Z,20.88
2023-05-13T09:16:03.481Z,22.72
2023-05-13T09:18:33.113Z,22.64
2023-05-13T09:21:23.197Z,22.56
2023-05-13T09:23:52.192Z,22.44
2023-05-13T09:26:29.295Z,22.01
2023-05-13T09:29:23.092Z,21.98
2023-05-13T09:31:53.043Z,22.79
2023-05-13T09:34:29.655Z,22.17
2023-05-13T09:37:04.611Z,21.28
2023-05-13T09:39:35.130Z,22.55
2023-05-13T09:42:05.337Z,23.02
2023-05-13T09:47:03.986Z,21.61
2023-05-13T09:49:33.145Z,21.46
2023-05-13T09:52:02.992Z,21.31
2023-05-13T09:54:37.698Z,21.07
2023-05-13T09:57:06.739Z,20.03
2023-05-13T09:59:35.741Z,21.02
2023-05-13T10:02:07.490Z,21.82
2023-05-13T10:04:36.514Z,21.38
2023-05-13T10:07:07.120Z,20.61
2023-05-13T10:09:38.377Z,21.60
2023-05-13T10:12:09.796Z,21.39
2023-05-13T10:14:38.821Z,20.68
2023-05-13T10:17:07.904Z,21.25
2023-05-13T10:19:36.858Z,21.25
2023-05-13T10:22:08.205Z,20.66
2023-05-13T10:24:38.617Z,20.81
2023-05-13T10:27:08.669Z,20.89
2023-05-13T10:29:40.734Z,19.89
2023-05-13T10:32:11.118Z,19.62
2023-05-13T10:34:41.158Z,19.13
2023-05-13T10:37:24.762Z,18.75
2023-05-13T10:40:12.773Z,18.85
2023-05-13T10:42:48.943Z,18.96
2023-05-13T10:45:18.499Z,18.52
2023-05-13T10:47:53.033Z,19.34
2023-05-13T10:50:27.858Z,18.33
2023-05-13T10:53:00.677Z,18.31
2023-05-13T10:55:29.397Z,18.35
2023-05-13T10:58:12.632Z,18.45
2023-05-13T11:00:41.514Z,19.16
2023-05-13T11:03:15.313Z,19.61
2023-05-13T11:05:46.972Z,18.54
2023-05-13T11:08:41.981Z,19.98
2023-05-13T11:11:28.727Z,19.21
2023-05-13T11:14:04.261Z,20.28
2023-05-13T11:16:32.662Z,20.55
2023-05-13T11:19:03.375Z,20.45
2023-05-13T11:21:33.086Z,20.44
2023-05-13T11:24:05.662Z,20.99
2023-05-13T11:26:47.242Z,20.02
2023-05-13T11:29:15.887Z,20.17
2023-05-13T11:31:46.895Z,20.17
2023-05-13T11:34:17.619Z,20.00
2023-05-13T11:36:48.044Z,21.10
2023-05-13T11:39:20.148Z,20.45
2023-05-13T11:41:49.387Z,20.79
2023-05-13T11:44:20.785Z,21.10
2023-05-13T11:46:54.195Z,20.05
2023-05-13T11:49:33.996Z,19.94
2023-05-13T11:52:07.516Z,19.31
2023-05-13T11:54:46.477Z,20.37
2023-05-13T11:57:22.774Z,19.82
2023-05-13T11:59:52.943Z,20.00
2023-05-13T12:02:26.409Z,20.99
2023-05-13T12:04:55.514Z,21.12
2023-05-13T12:07:24.972Z,21.42
2023-05-13T12:09:57.431Z,19.77
2023-05-13T12:12:27.587Z,20.18
2023-05-13T12:14:57.735Z,18.84
2023-05-13T12:17:26.877Z,18.77
2023-05-13T12:20:10.456Z,19.14
2023-05-13T12:22:50.157Z,18.85
2023-05-13T12:25:39.936Z,19.45
2023-05-13T12:28:10.445Z,18.93
2023-05-13T12:30:40.431Z,19.02
2023-05-13T12:33:17.851Z,20.22
2023-05-13T12:35:48.516Z,21.04
2023-05-13T12:38:18.797Z,21.63
2023-05-13T12:40:49.994Z,21.18
2023-05-13T12:43:20.447Z,21.25
2023-05-13T12:45:54.330Z,20.59
2023-05-13T12:48:26.226Z,21.41
2023-05-13T12:50:54.953Z,21.04
2023-05-13T12:53:23.655Z,18.88
2023-05-13T12:55:53.934Z,19.61
2023-05-13T12:58:23.568Z,19.84
2023-05-13T13:00:52.393Z,20.43
2023-05-13T13:03:24.254Z,21.13
2023-05-13T13:05:53.300Z,19.23
2023-05-13T13:08:22.598Z,19.58
2023-05-13T13:10:53.398Z,19.48
2023-05-13T13:13:21.907Z,20.30
2023-05-13T13:15:50.716Z,20.10
2023-05-13T13:18:19.914Z,19.69
2023-05-13T13:20:48.521Z,19.79
2023-05-13T13:23:17.404Z,19.42
2023-05-13T13:25:46.257Z,19.62
2023-05-13T13:28:16.377Z,19.40
2023-05-13T13:30:47.492Z,19.92
2023-05-13T13:33:17.612Z,20.33
2023-05-13T13:35:47.448Z,19.63
2023-05-13T13:38:16.299Z,19.39
2023-05-13T13:40:45.390Z,20.36
2023-05-13T13:43:15.744Z,21.16
2023-05-13T13:45:44.502Z,20.59
2023-05-13T13:48:15.152Z,20.88
2023-05-13T13:50:45.418Z,21.27
2023-05-13T13:53:19.116Z,21.36
2023-05-13T13:55:48.400Z,21.76
2023-05-13T13:58:19.483Z,21.54
2023-05-13T14:00:49.859Z,21.47
2023-05-13T14:03:19.021Z,21.19
2023-05-13T14:05:48.982Z,21.46
2023-05-13T14:08:17.621Z,21.25
2023-05-13T14:10:49.841Z,21.09
2023-05-13T14:13:20.107Z,20.29
2023-05-13T14:15:48.692Z,20.25
2023-05-13T14:18:17.743Z,21.43
2023-05-13T14:20:47.666Z,21.48
2023-05-13T14:23:16.040Z,21.13
2023-05-13T14:25:44.970Z,21.29
2023-05-13T14:28:16.028Z,20.61
2023-05-13T14:30:46.238Z,21.42
2023-05-13T14:33:15.281Z,20.97
2023-05-13T14:35:44.179Z,20.59
2023-05-13T14:38:13.351Z,20.84
2023-05-13T14:40:41.913Z,20.36
2023-05-13T14:43:10.535Z,20.43
2023-05-13T14:45:39.472Z,20.69
2023-05-13T14:48:09.149Z,20.65
2023-05-13T14:50:39.371Z,20.68
2023-05-13T14:53:09.151Z,20.60
2023-05-13T14:55:37.621Z,21.08
2023-05-13T14:58:08.266Z,20.49
2023-05-13T15:00:38.210Z,20.62
2023-05-13T15:03:09.314Z,20.81
2023-05-13T15:05:38.535Z,21.21
2023-05-13T15:08:07.344Z,21.41
2023-05-13T15:10:36.831Z,21.04
2023-05-13T15:13:05.524Z,20.16
2023-05-13T15:15:34.702Z,20.85
2023-05-13T15:18:03.202Z,20.40
2023-05-13T15:20:33.159Z,21.21
2023-05-13T15:23:01.509Z,20.54
2023-05-13T15:25:30.405Z,20.24
2023-05-13T15:27:58.868Z,20.23
2023-05-13T15:30:27.468Z,20.39
2023-05-13T15:32:56.256Z,20.95
2023-05-13T15:35:25.139Z,19.97
2023-05-13T15:37:55.003Z,20.07
2023-05-13T15:40:24.031Z,19.66
2023-05-13T15:42:52.821Z,19.72
2023-05-13T15:45:21.612Z,19.24
2023-05-13T15:47:50.692Z,19.69
2023-05-13T15:50:19.727Z,20.00
2023-05-13T15:52:48.196Z,19.31
2023-05-13T15:55:18.403Z,18.22
2023-05-13T15:57:48.896Z,18.54
2023-05-13T16:00:20.222Z,19.16
2023-05-13T16:02:48.929Z,18.65
2023-05-13T16:05:20.037Z,18.90
2023-05-13T16:07:48.461Z,19.71
2023-05-13T16:10:19.052Z,18.84
2023-05-13T16:12:47.548Z,18.58
2023-05-13T16:15:15.873Z,18.59
2023-05-13T16:17:44.490Z,18.81
2023-05-13T16:20:15.046Z,18.73
2023-05-13T16:22:43.573Z,18.80
2023-05-13T16:25:12.884Z,18.56
2023-05-13T16:27:43.947Z,18.86
2023-05-13T16:30:13.441Z,18.25
2023-05-13T16:32:42.140Z,18.29
2023-05-13T16:35:13.173Z,17.87
2023-05-13T16:37:41.646Z,18.29
2023-05-13T16:40:11.954Z,17.87
2023-05-13T16:42:41.347Z,18.32
2023-05-13T16:45:11.906Z,18.09
2023-05-13T16:47:40.619Z,17.78
2023-05-13T16:50:10.397Z,18.59
2023-05-13T16:52:39.112Z,18.70
2023-05-13T16:55:09.098Z,18.81
2023-05-13T16:57:38.176Z,18.63
2023-05-13T17:00:08.608Z,18.36
2023-05-13T17:02:39.276Z,18.48
2023-05-13T17:05:08.325Z,18.25
2023-05-13T17:07:36.616Z,18.11
2023-05-13T17:10:06.410Z,17.77
2023-05-13T17:12:35.201Z,18.20
2023-05-13T17:15:04.734Z,18.22
2023-05-13T17:17:33.380Z,18.13
2023-05-13T17:20:03.645Z,17.91
2023-05-13T17:22:31.809Z,17.95
2023-05-13T17:25:00.878Z,17.85
2023-05-13T17:27:28.947Z,17.65
2023-05-13T17:29:57.168Z,17.85
2023-05-13T17:32:26.157Z,17.74
2023-05-13T17:34:54.544Z,17.66
2023-05-13T17:37:24.273Z,17.76
2023-05-13T17:39:53.298Z,17.78
2023-05-13T17:42:21.816Z,18.00
2023-05-13T17:44:50.000Z,17.72
2023-05-13T17:47:18.686Z,17.48
2023-05-13T17:49:47.329Z,17.61
2023-05-13T17:52:15.645Z,17.76
2023-05-13T17:54:45.787Z,17.93
2023-05-13T17:57:14.506Z,18.23
2023-05-13T17:59:43.526Z,18.33
2023-05-13T18:02:12.434Z,18.00
2023-05-13T18:04:41.201Z,17.85
2023-05-13T18:07:09.886Z,17.85
2023-05-13T18:09:38.739Z,18.30
2023-05-13T18:12:09.415Z,17.87
2023-05-13T18:14:39.105Z,17.46
2023-05-13T18:17:07.509Z,17.73
2023-05-13T18:19:38.863Z,17.38
2023-05-13T18:22:09.144Z,17.39
2023-05-13T18:24:38.458Z,17.49
2023-05-13T18:27:09.112Z,17.28
2023-05-13T18:29:38.310Z,17.35
2023-05-13T18:32:07.118Z,16.87
2023-05-13T18:34:36.262Z,16.95
2023-05-13T18:37:04.523Z,17.32
2023-05-13T18:39:32.833Z,17.34
2023-05-13T18:42:01.502Z,16.97
2023-05-13T18:44:31.160Z,16.95
2023-05-13T18:46:59.703Z,17.39
2023-05-13T18:49:29.130Z,16.96
2023-05-13T18:51:57.271Z,17.40
2023-05-13T18:54:29.643Z,17.12
2023-05-13T18:56:57.831Z,17.32
2023-05-13T18:59:26.434Z,16.93
2023-05-13T19:01:56.770Z,17.15
2023-05-13T19:04:25.618Z,17.07
2023-05-13T19:06:54.763Z,17.05
2023-05-13T19:09:23.246Z,16.97
2023-05-13T19:11:52.229Z,16.93
2023-05-13T19:14:21.041Z,17.14
2023-05-13T19:16:50.139Z,17.35
2023-05-13T19:19:19.992Z,17.25
2023-05-13T19:21:49.142Z,17.19
2023-05-13T19:24:17.562Z,17.24
2023-05-13T19:26:45.936Z,17.14
2023-05-13T19:29:14.946Z,17.12
2023-05-13T19:31:43.333Z,17.35
2023-05-13T19:34:12.021Z,16.85
2023-05-13T19:36:42.241Z,17.28
2023-05-13T19:39:11.646Z,17.09
2023-05-13T19:41:40.459Z,16.55
2023-05-13T19:44:09.238Z,16.70
2023-05-13T19:46:37.967Z,16.28
2023-05-13T19:49:07.127Z,16.40
2023-05-13T19:51:35.589Z,16.65
2023-05-13T19:54:07.350Z,16.71
2023-05-13T19:56:35.940Z,16.54
2023-05-13T19:59:04.438Z,16.54
2023-05-13T20:01:33.235Z,16.60
2023-05-13T20:04:01.563Z,17.08
2023-05-13T20:06:31.346Z,16.68
2023-05-13T20:09:01.428Z,16.33
2023-05-13T20:11:31.637Z,16.40
2023-05-13T20:14:00.424Z,16.73
2023-05-13T20:16:29.537Z,16.71
2023-05-13T20:18:58.858Z,16.01
2023-05-13T20:21:27.827Z,15.83
2023-05-13T20:23:57.022Z,15.83
2023-05-13T20:26:28.128Z,16.09
2023-05-13T20:28:59.172Z,16.07
2023-05-13T20:31:27.681Z,15.94
2023-05-13T20:33:56.302Z,15.73
2023-05-13T20:36:25.242Z,15.91
2023-05-13T20:38:54.543Z,15.61
2023-05-13T20:41:23.566Z,15.41
2023-05-13T20:43:53.033Z,15.53
2023-05-13T20:46:23.690Z,15.53
2023-05-13T20:48:52.371Z,15.42
2023-05-13T20:51:22.024Z,15.43
2023-05-13T20:53:53.639Z,15.42
2023-05-13T20:56:22.688Z,15.15
2023-05-13T20:58:51.710Z,14.96
2023-05-13T21:01:20.937Z,14.87
2023-05-13T21:03:51.545Z,14.99
2023-05-13T21:06:22.691Z,14.93
2023-05-13T21:08:51.885Z,15.27
2023-05-13T21:11:25.563Z,14.82
2023-05-13T21:13:54.918Z,15.14
2023-05-13T21:16:23.771Z,15.04
2023-05-13T21:18:53.962Z,15.22
2023-05-13T21:21:22.941Z,15.12
2023-05-13T21:23:51.472Z,15.42
2023-05-13T21:26:20.058Z,15.26
2023-05-13T21:28:49.203Z,15.29
2023-05-13T21:31:18.240Z,15.45
2023-05-13T21:33:46.712Z,15.44
2023-05-13T21:36:17.984Z,15.38
2023-05-13T21:38:47.083Z,15.33
2023-05-13T21:41:16.343Z,15.15
2023-05-13T21:43:46.294Z,15.31
2023-05-13T21:46:15.630Z,15.07
2023-05-13T21:48:44.179Z,14.88
2023-05-13T21:51:13.262Z,14.99
2023-05-13T21:53:44.222Z,14.84
2023-05-13T21:56:12.679Z,14.74
2023-05-13T21:58:41.674Z,14.57
2023-05-13T22:01:10.410Z,14.64
2023-05-13T22:03:39.342Z,14.36
2023-05-13T22:06:09.117Z,14.45
2023-05-13T22:08:37.526Z,14.42
2023-05-13T22:11:08.302Z,14.01
2023-05-13T22:13:37.267Z,14.19
2023-05-13T22:16:06.783Z,14.19
2023-05-13T22:18:36.083Z,14.00
2023-05-13T22:21:06.722Z,14.06
2023-05-13T22:23:36.386Z,13.92
2023-05-13T22:26:07.053Z,13.74
2023-05-13T22:28:35.900Z,13.71
2023-05-13T22:31:04.919Z,13.73
2023-05-13T22:33:33.019Z,13.56
2023-05-13T22:36:01.479Z,13.57
2023-05-13T22:38:30.646Z,13.62
2023-05-13T22:40:59.743Z,13.54
2023-05-13T22:43:29.291Z,13.31
2023-05-13T22:45:58.668Z,13.34
2023-05-13T22:48:27.251Z,13.19
2023-05-13T22:50:57.276Z,13.18
2023-05-13T22:53:27.465Z,13.18
2023-05-13T22:55:56.345Z,13.24
2023-05-13T22:58:24.819Z,13.10
2023-05-13T23:00:55.355Z,12.83
2023-05-13T23:03:23.941Z,12.95
2023-05-13T23:05:52.733Z,13.12
2023-05-13T23:08:21.701Z,13.30
2023-05-13T23:10:50.183Z,13.10
2023-05-13T23:13:19.324Z,12.92
2023-05-13T23:15:53.656Z,12.80
2023-05-13T23:18:24.877Z,12.65
2023-05-13T23:20:56.284Z,12.38
2023-05-13T23:23:24.974Z,12.64
2023-05-13T23:25:55.115Z,12.62
2023-05-13T23:28:25.037Z,12.35
2023-05-13T23:30:56.257Z,12.52
2023-05-13T23:33:27.278Z,12.51
2023-05-13T23:35:57.286Z,12.49
2023-05-13T23:38:26.089Z,12.28
2023-05-13T23:40:54.929Z,12.47
2023-05-13T23:43:24.284Z,12.25
2023-05-13T23:45:53.486Z,12.25
2023-05-13T23:48:22.224Z,11.91
2023-05-13T23:50:52.555Z,12.11
2023-05-13T23:53:21.451Z,11.74
2023-05-13T23:55:50.824Z,11.89
2023-05-13T23:58:20.628Z,11.57
